sensor_id;sensor_type;location;lat;lon;timestamp;temperature;humidity
45104;DHT22;30865;51.288;4.572;2022-12-29T00:01:14;6.80;90.00
45104;DHT22;30865;51.288;4.572;2022-12-29T00:03:39;6.70;90.00
45104;DHT22;30865;51.288;4.572;2022-12-29T00:06:05;6.80;89.40
45104;DHT22;30865;51.288;4.572;2022-12-29T00:08:30;6.80;89.70
45104;DHT22;30865;51.288;4.572;2022-12-29T00:11:10;6.80;89.80
45104;DHT22;30865;51.288;4.572;2022-12-29T00:13:36;6.80;89.20
45104;DHT22;30865;51.288;4.572;2022-12-29T00:16:20;6.90;89.60
45104;DHT22;30865;51.288;4.572;2022-12-29T00:18:46;7.00;89.10
45104;DHT22;30865;51.288;4.572;2022-12-29T00:21:16;7.10;89.10
45104;DHT22;30865;51.288;4.572;2022-12-29T00:24:00;7.00;89.00
45104;DHT22;30865;51.288;4.572;2022-12-29T00:26:46;7.10;89.00
45104;DHT22;30865;51.288;4.572;2022-12-29T00:29:30;7.10;88.60
45104;DHT22;30865;51.288;4.572;2022-12-29T00:32:14;7.20;88.10
45104;DHT22;30865;51.288;4.572;2022-12-29T00:34:58;7.10;88.50
45104;DHT22;30865;51.288;4.572;2022-12-29T00:37:33;7.10;88.60
45104;DHT22;30865;51.288;4.572;2022-12-29T00:40:18;7.10;88.10
45104;DHT22;30865;51.288;4.572;2022-12-29T00:43:02;7.10;87.80
45104;DHT22;30865;51.288;4.572;2022-12-29T00:45:46;7.20;88.10
45104;DHT22;30865;51.288;4.572;2022-12-29T00:48:11;7.30;88.00
45104;DHT22;30865;51.288;4.572;2022-12-29T00:50:37;7.40;87.70
45104;DHT22;30865;51.288;4.572;2022-12-29T00:53:02;7.30;88.10
45104;DHT22;30865;51.288;4.572;2022-12-29T00:55:28;7.20;87.70
45104;DHT22;30865;51.288;4.572;2022-12-29T00:57:53;7.30;87.70
45104;DHT22;30865;51.288;4.572;2022-12-29T01:00:19;7.20;88.40
45104;DHT22;30865;51.288;4.572;2022-12-29T01:02:44;7.20;88.70
45104;DHT22;30865;51.288;4.572;2022-12-29T01:05:10;7.10;88.50
45104;DHT22;30865;51.288;4.572;2022-12-29T01:07:35;7.00;89.30
45104;DHT22;30865;51.288;4.572;2022-12-29T01:10:01;7.00;89.40
45104;DHT22;30865;51.288;4.572;2022-12-29T01:12:35;6.90;90.00
45104;DHT22;30865;51.288;4.572;2022-12-29T01:15:08;6.80;90.50
45104;DHT22;30865;51.288;4.572;2022-12-29T01:17:34;6.90;89.90
45104;DHT22;30865;51.288;4.572;2022-12-29T01:20:00;6.90;89.90
45104;DHT22;30865;51.288;4.572;2022-12-29T01:22:26;6.90;90.00
45104;DHT22;30865;51.288;4.572;2022-12-29T01:24:52;7.00;89.70
45104;DHT22;30865;51.288;4.572;2022-12-29T01:27:17;7.00;89.60
45104;DHT22;30865;51.288;4.572;2022-12-29T01:29:43;7.10;89.20
45104;DHT22;30865;51.288;4.572;2022-12-29T01:32:08;7.10;89.30
45104;DHT22;30865;51.288;4.572;2022-12-29T01:34:34;7.10;89.00
45104;DHT22;30865;51.288;4.572;2022-12-29T01:36:59;7.00;89.30
45104;DHT22;30865;51.288;4.572;2022-12-29T01:39:25;7.00;89.80
45104;DHT22;30865;51.288;4.572;2022-12-29T01:41:50;7.00;90.40
45104;DHT22;30865;51.288;4.572;2022-12-29T01:44:39;6.90;90.20
45104;DHT22;30865;51.288;4.572;2022-12-29T01:47:22;6.90;90.10
45104;DHT22;30865;51.288;4.572;2022-12-29T01:49:53;7.00;89.90
45104;DHT22;30865;51.288;4.572;2022-12-29T01:52:20;7.00;90.00
45104;DHT22;30865;51.288;4.572;2022-12-29T01:54:51;7.10;90.00
45104;DHT22;30865;51.288;4.572;2022-12-29T01:57:20;7.20;89.10
45104;DHT22;30865;51.288;4.572;2022-12-29T01:59:53;7.20;89.30
45104;DHT22;30865;51.288;4.572;2022-12-29T02:02:20;7.20;89.20
45104;DHT22;30865;51.288;4.572;2022-12-29T02:04:46;7.20;88.80
45104;DHT22;30865;51.288;4.572;2022-12-29T02:07:21;7.20;89.50
45104;DHT22;30865;51.288;4.572;2022-12-29T02:09:49;7.30;88.70
45104;DHT22;30865;51.288;4.572;2022-12-29T02:12:16;7.40;88.20
45104;DHT22;30865;51.288;4.572;2022-12-29T02:14:43;7.40;88.70
45104;DHT22;30865;51.288;4.572;2022-12-29T02:17:28;7.40;88.60
45104;DHT22;30865;51.288;4.572;2022-12-29T02:31:00;7.70;87.20
45104;DHT22;30865;51.288;4.572;2022-12-29T02:33:56;7.70;87.00
45104;DHT22;30865;51.288;4.572;2022-12-29T02:39:23;7.70;86.80
45104;DHT22;30865;51.288;4.572;2022-12-29T02:45:05;7.60;87.10
45104;DHT22;30865;51.288;4.572;2022-12-29T02:47:46;7.70;86.80
45104;DHT22;30865;51.288;4.572;2022-12-29T02:50:20;7.70;86.80
45104;DHT22;30865;51.288;4.572;2022-12-29T02:53:02;7.70;86.80
45104;DHT22;30865;51.288;4.572;2022-12-29T02:55:29;7.70;86.80
45104;DHT22;30865;51.288;4.572;2022-12-29T02:58:15;7.70;86.60
45104;DHT22;30865;51.288;4.572;2022-12-29T03:09:36;7.90;86.50
45104;DHT22;30865;51.288;4.572;2022-12-29T03:15:25;7.70;86.80
45104;DHT22;30865;51.288;4.572;2022-12-29T03:18:23;7.70;86.80
45104;DHT22;30865;51.288;4.572;2022-12-29T03:21:20;7.60;87.10
45104;DHT22;30865;51.288;4.572;2022-12-29T03:24:10;7.60;87.90
45104;DHT22;30865;51.288;4.572;2022-12-29T03:26:36;7.60;87.70
45104;DHT22;30865;51.288;4.572;2022-12-29T03:29:03;7.80;87.10
45104;DHT22;30865;51.288;4.572;2022-12-29T03:31:30;7.70;87.20
45104;DHT22;30865;51.288;4.572;2022-12-29T03:33:56;7.70;87.10
45104;DHT22;30865;51.288;4.572;2022-12-29T03:36:30;7.70;87.60
45104;DHT22;30865;51.288;4.572;2022-12-29T03:39:06;7.90;86.50
45104;DHT22;30865;51.288;4.572;2022-12-29T03:41:34;7.90;86.30
45104;DHT22;30865;51.288;4.572;2022-12-29T03:44:00;7.90;86.40
45104;DHT22;30865;51.288;4.572;2022-12-29T03:46:25;8.10;85.40
45104;DHT22;30865;51.288;4.572;2022-12-29T03:48:51;8.20;84.60
45104;DHT22;30865;51.288;4.572;2022-12-29T03:51:16;8.40;83.80
45104;DHT22;30865;51.288;4.572;2022-12-29T03:53:42;8.50;83.50
45104;DHT22;30865;51.288;4.572;2022-12-29T03:56:07;8.50;82.60
45104;DHT22;30865;51.288;4.572;2022-12-29T03:58:33;8.80;81.10
45104;DHT22;30865;51.288;4.572;2022-12-29T04:00:58;9.10;79.60
45104;DHT22;30865;51.288;4.572;2022-12-29T04:03:24;9.20;79.40
45104;DHT22;30865;51.288;4.572;2022-12-29T04:05:49;9.20;79.40
45104;DHT22;30865;51.288;4.572;2022-12-29T04:08:15;9.20;78.50
45104;DHT22;30865;51.288;4.572;2022-12-29T04:10:40;9.30;77.90
45104;DHT22;30865;51.288;4.572;2022-12-29T04:13:06;9.30;78.30
45104;DHT22;30865;51.288;4.572;2022-12-29T04:15:32;9.30;77.90
45104;DHT22;30865;51.288;4.572;2022-12-29T04:17:57;9.30;78.60
45104;DHT22;30865;51.288;4.572;2022-12-29T04:20:23;9.30;79.00
45104;DHT22;30865;51.288;4.572;2022-12-29T04:23:07;9.30;78.70
45104;DHT22;30865;51.288;4.572;2022-12-29T04:25:33;9.50;78.10
45104;DHT22;30865;51.288;4.572;2022-12-29T04:28:00;9.30;79.80
45104;DHT22;30865;51.288;4.572;2022-12-29T04:30:25;9.30;79.20
45104;DHT22;30865;51.288;4.572;2022-12-29T04:32:51;9.20;80.00
45104;DHT22;30865;51.288;4.572;2022-12-29T04:35:16;9.30;79.70
45104;DHT22;30865;51.288;4.572;2022-12-29T04:37:42;9.40;79.20
45104;DHT22;30865;51.288;4.572;2022-12-29T04:40:08;9.50;79.30
45104;DHT22;30865;51.288;4.572;2022-12-29T04:42:34;9.60;78.80
45104;DHT22;30865;51.288;4.572;2022-12-29T04:44:59;9.60;79.10
45104;DHT22;30865;51.288;4.572;2022-12-29T04:47:25;9.80;78.50
45104;DHT22;30865;51.288;4.572;2022-12-29T04:49:50;9.90;78.70
45104;DHT22;30865;51.288;4.572;2022-12-29T04:52:16;9.90;79.10
45104;DHT22;30865;51.288;4.572;2022-12-29T04:54:41;9.80;78.80
45104;DHT22;30865;51.288;4.572;2022-12-29T04:57:07;9.90;78.30
45104;DHT22;30865;51.288;4.572;2022-12-29T04:59:32;10.00;77.40
45104;DHT22;30865;51.288;4.572;2022-12-29T05:01:58;10.00;77.20
45104;DHT22;30865;51.288;4.572;2022-12-29T05:04:23;10.00;77.20
45104;DHT22;30865;51.288;4.572;2022-12-29T05:06:49;10.00;76.90
45104;DHT22;30865;51.288;4.572;2022-12-29T05:09:14;10.20;76.90
45104;DHT22;30865;51.288;4.572;2022-12-29T05:11:40;10.10;76.80
45104;DHT22;30865;51.288;4.572;2022-12-29T05:14:05;10.00;77.70
45104;DHT22;30865;51.288;4.572;2022-12-29T05:16:31;10.00;77.60
45104;DHT22;30865;51.288;4.572;2022-12-29T05:18:56;10.20;76.60
45104;DHT22;30865;51.288;4.572;2022-12-29T05:21:22;10.10;76.50
45104;DHT22;30865;51.288;4.572;2022-12-29T05:23:48;9.90;78.40
45104;DHT22;30865;51.288;4.572;2022-12-29T05:26:13;10.10;76.60
45104;DHT22;30865;51.288;4.572;2022-12-29T05:28:39;10.00;76.90
45104;DHT22;30865;51.288;4.572;2022-12-29T05:31:04;10.00;77.10
45104;DHT22;30865;51.288;4.572;2022-12-29T05:33:30;9.80;79.10
45104;DHT22;30865;51.288;4.572;2022-12-29T05:35:55;10.00;77.00
45104;DHT22;30865;51.288;4.572;2022-12-29T05:38:21;10.00;76.40
45104;DHT22;30865;51.288;4.572;2022-12-29T05:40:46;10.00;76.40
45104;DHT22;30865;51.288;4.572;2022-12-29T05:43:12;10.00;76.80
45104;DHT22;30865;51.288;4.572;2022-12-29T05:45:37;9.80;78.10
45104;DHT22;30865;51.288;4.572;2022-12-29T05:48:03;9.80;78.20
45104;DHT22;30865;51.288;4.572;2022-12-29T05:50:29;9.60;78.20
45104;DHT22;30865;51.288;4.572;2022-12-29T05:52:54;9.50;78.10
45104;DHT22;30865;51.288;4.572;2022-12-29T05:55:20;9.50;78.50
45104;DHT22;30865;51.288;4.572;2022-12-29T05:57:45;9.40;78.50
45104;DHT22;30865;51.288;4.572;2022-12-29T06:00:11;9.30;78.90
45104;DHT22;30865;51.288;4.572;2022-12-29T06:02:37;9.30;79.10
45104;DHT22;30865;51.288;4.572;2022-12-29T06:05:03;9.40;78.80
45104;DHT22;30865;51.288;4.572;2022-12-29T06:07:28;9.40;79.30
45104;DHT22;30865;51.288;4.572;2022-12-29T06:09:54;9.40;78.30
45104;DHT22;30865;51.288;4.572;2022-12-29T06:12:19;9.40;77.70
45104;DHT22;30865;51.288;4.572;2022-12-29T06:14:45;9.50;77.50
45104;DHT22;30865;51.288;4.572;2022-12-29T06:17:10;9.70;76.50
45104;DHT22;30865;51.288;4.572;2022-12-29T06:19:36;9.80;76.30
45104;DHT22;30865;51.288;4.572;2022-12-29T06:22:01;9.80;76.00
45104;DHT22;30865;51.288;4.572;2022-12-29T06:24:27;9.80;75.60
45104;DHT22;30865;51.288;4.572;2022-12-29T06:26:53;9.90;75.30
45104;DHT22;30865;51.288;4.572;2022-12-29T06:29:18;9.90;75.30
45104;DHT22;30865;51.288;4.572;2022-12-29T06:31:45;9.90;75.60
45104;DHT22;30865;51.288;4.572;2022-12-29T06:34:12;9.70;76.20
45104;DHT22;30865;51.288;4.572;2022-12-29T06:36:38;9.60;76.70
45104;DHT22;30865;51.288;4.572;2022-12-29T06:39:04;9.60;76.90
45104;DHT22;30865;51.288;4.572;2022-12-29T06:41:29;9.50;77.30
45104;DHT22;30865;51.288;4.572;2022-12-29T06:43:55;9.50;78.00
45104;DHT22;30865;51.288;4.572;2022-12-29T06:46:20;9.40;78.20
45104;DHT22;30865;51.288;4.572;2022-12-29T06:48:46;9.40;77.90
45104;DHT22;30865;51.288;4.572;2022-12-29T06:51:11;9.50;77.50
45104;DHT22;30865;51.288;4.572;2022-12-29T06:53:37;9.60;77.20
45104;DHT22;30865;51.288;4.572;2022-12-29T06:56:02;9.60;77.30
45104;DHT22;30865;51.288;4.572;2022-12-29T06:58:28;9.60;76.90
45104;DHT22;30865;51.288;4.572;2022-12-29T07:00:53;9.70;76.30
45104;DHT22;30865;51.288;4.572;2022-12-29T07:03:19;9.60;76.30
45104;DHT22;30865;51.288;4.572;2022-12-29T07:05:44;9.70;76.60
45104;DHT22;30865;51.288;4.572;2022-12-29T07:08:10;9.70;76.10
45104;DHT22;30865;51.288;4.572;2022-12-29T07:10:35;9.60;76.30
45104;DHT22;30865;51.288;4.572;2022-12-29T07:13:01;9.70;76.30
45104;DHT22;30865;51.288;4.572;2022-12-29T07:15:26;9.50;76.50
45104;DHT22;30865;51.288;4.572;2022-12-29T07:17:52;9.60;76.90
45104;DHT22;30865;51.288;4.572;2022-12-29T07:20:17;9.50;77.00
45104;DHT22;30865;51.288;4.572;2022-12-29T07:22:43;9.50;76.90
45104;DHT22;30865;51.288;4.572;2022-12-29T07:25:08;9.60;76.80
45104;DHT22;30865;51.288;4.572;2022-12-29T07:27:34;9.60;77.10
45104;DHT22;30865;51.288;4.572;2022-12-29T07:29:59;9.60;77.10
45104;DHT22;30865;51.288;4.572;2022-12-29T07:32:25;9.60;77.20
45104;DHT22;30865;51.288;4.572;2022-12-29T07:34:52;9.60;77.80
45104;DHT22;30865;51.288;4.572;2022-12-29T07:37:18;9.50;78.20
45104;DHT22;30865;51.288;4.572;2022-12-29T07:39:43;9.50;78.10
45104;DHT22;30865;51.288;4.572;2022-12-29T07:42:09;9.40;79.20
45104;DHT22;30865;51.288;4.572;2022-12-29T07:44:34;9.40;79.20
45104;DHT22;30865;51.288;4.572;2022-12-29T07:47:02;9.30;79.20
45104;DHT22;30865;51.288;4.572;2022-12-29T07:49:27;9.20;79.80
45104;DHT22;30865;51.288;4.572;2022-12-29T07:51:53;9.20;80.30
45104;DHT22;30865;51.288;4.572;2022-12-29T07:54:18;9.20;80.70
45104;DHT22;30865;51.288;4.572;2022-12-29T07:56:44;9.20;80.40
45104;DHT22;30865;51.288;4.572;2022-12-29T07:59:10;9.30;80.10
45104;DHT22;30865;51.288;4.572;2022-12-29T08:01:37;9.40;79.90
45104;DHT22;30865;51.288;4.572;2022-12-29T08:04:03;9.50;79.50
45104;DHT22;30865;51.288;4.572;2022-12-29T08:06:28;9.50;79.20
45104;DHT22;30865;51.288;4.572;2022-12-29T08:08:56;9.50;79.10
45104;DHT22;30865;51.288;4.572;2022-12-29T08:11:21;9.80;78.90
45104;DHT22;30865;51.288;4.572;2022-12-29T08:13:47;9.80;78.10
45104;DHT22;30865;51.288;4.572;2022-12-29T08:16:13;9.90;78.20
45104;DHT22;30865;51.288;4.572;2022-12-29T08:18:38;10.10;76.50
45104;DHT22;30865;51.288;4.572;2022-12-29T08:21:04;10.30;75.60
45104;DHT22;30865;51.288;4.572;2022-12-29T08:23:30;10.40;75.30
45104;DHT22;30865;51.288;4.572;2022-12-29T08:26:00;10.50;74.80
45104;DHT22;30865;51.288;4.572;2022-12-29T08:28:25;10.60;74.90
45104;DHT22;30865;51.288;4.572;2022-12-29T08:30:52;10.60;74.50
45104;DHT22;30865;51.288;4.572;2022-12-29T08:33:17;10.60;74.50
45104;DHT22;30865;51.288;4.572;2022-12-29T08:35:43;10.40;75.80
45104;DHT22;30865;51.288;4.572;2022-12-29T08:38:08;10.60;75.60
45104;DHT22;30865;51.288;4.572;2022-12-29T08:40:36;10.60;74.90
45104;DHT22;30865;51.288;4.572;2022-12-29T08:43:02;10.70;74.90
45104;DHT22;30865;51.288;4.572;2022-12-29T08:45:27;10.70;74.60
45104;DHT22;30865;51.288;4.572;2022-12-29T08:47:53;10.70;75.00
45104;DHT22;30865;51.288;4.572;2022-12-29T08:50:18;10.80;74.60
45104;DHT22;30865;51.288;4.572;2022-12-29T08:52:44;10.90;74.10
45104;DHT22;30865;51.288;4.572;2022-12-29T08:55:09;11.20;73.10
45104;DHT22;30865;51.288;4.572;2022-12-29T08:57:35;11.30;72.20
45104;DHT22;30865;51.288;4.572;2022-12-29T09:00:01;11.60;70.70
45104;DHT22;30865;51.288;4.572;2022-12-29T09:02:26;11.80;69.70
45104;DHT22;30865;51.288;4.572;2022-12-29T09:04:52;11.70;69.50
45104;DHT22;30865;51.288;4.572;2022-12-29T09:07:17;11.60;69.80
45104;DHT22;30865;51.288;4.572;2022-12-29T09:09:43;11.70;69.50
45104;DHT22;30865;51.288;4.572;2022-12-29T09:12:08;11.80;69.00
45104;DHT22;30865;51.288;4.572;2022-12-29T09:14:34;11.90;68.80
45104;DHT22;30865;51.288;4.572;2022-12-29T09:16:59;11.70;69.00
45104;DHT22;30865;51.288;4.572;2022-12-29T09:19:43;11.80;69.00
45104;DHT22;30865;51.288;4.572;2022-12-29T09:22:09;11.90;68.50
45104;DHT22;30865;51.288;4.572;2022-12-29T09:24:34;11.90;68.60
45104;DHT22;30865;51.288;4.572;2022-12-29T09:27:00;11.90;68.30
45104;DHT22;30865;51.288;4.572;2022-12-29T09:29:25;12.00;68.40
45104;DHT22;30865;51.288;4.572;2022-12-29T09:31:50;12.20;66.80
45104;DHT22;30865;51.288;4.572;2022-12-29T09:34:16;12.40;66.10
45104;DHT22;30865;51.288;4.572;2022-12-29T09:36:42;12.40;66.00
45104;DHT22;30865;51.288;4.572;2022-12-29T09:39:08;12.40;65.60
45104;DHT22;30865;51.288;4.572;2022-12-29T09:50:33;12.50;65.50
45104;DHT22;30865;51.288;4.572;2022-12-29T09:55:45;12.80;65.10
45104;DHT22;30865;51.288;4.572;2022-12-29T10:00:53;13.00;65.20
45104;DHT22;30865;51.288;4.572;2022-12-29T10:03:20;13.20;63.30
45104;DHT22;30865;51.288;4.572;2022-12-29T10:11:43;13.20;63.50
45104;DHT22;30865;51.288;4.572;2022-12-29T10:20:18;13.10;64.90
45104;DHT22;30865;51.288;4.572;2022-12-29T10:22:57;13.00;64.90
45104;DHT22;30865;51.288;4.572;2022-12-29T10:25:32;13.00;64.70
45104;DHT22;30865;51.288;4.572;2022-12-29T10:28:11;13.10;65.10
45104;DHT22;30865;51.288;4.572;2022-12-29T10:30:40;13.10;64.90
45104;DHT22;30865;51.288;4.572;2022-12-29T10:33:11;13.20;64.80
45104;DHT22;30865;51.288;4.572;2022-12-29T10:35:41;13.30;64.90
45104;DHT22;30865;51.288;4.572;2022-12-29T10:38:37;13.30;65.00
45104;DHT22;30865;51.288;4.572;2022-12-29T10:41:18;13.20;65.80
45104;DHT22;30865;51.288;4.572;2022-12-29T10:43:52;13.40;65.50
45104;DHT22;30865;51.288;4.572;2022-12-29T10:46:24;13.40;65.80
45104;DHT22;30865;51.288;4.572;2022-12-29T10:48:50;13.50;65.60
45104;DHT22;30865;51.288;4.572;2022-12-29T10:51:31;13.50;65.30
45104;DHT22;30865;51.288;4.572;2022-12-29T10:54:06;13.80;64.90
45104;DHT22;30865;51.288;4.572;2022-12-29T10:56:52;13.90;64.10
45104;DHT22;30865;51.288;4.572;2022-12-29T10:59:22;14.00;64.10
45104;DHT22;30865;51.288;4.572;2022-12-29T11:02:38;14.20;63.30
45104;DHT22;30865;51.288;4.572;2022-12-29T11:05:28;14.20;62.70
45104;DHT22;30865;51.288;4.572;2022-12-29T11:08:00;14.40;62.50
45104;DHT22;30865;51.288;4.572;2022-12-29T11:10:35;14.50;62.30
45104;DHT22;30865;51.288;4.572;2022-12-29T11:13:16;14.40;62.40
45104;DHT22;30865;51.288;4.572;2022-12-29T11:15:46;14.30;63.80
45104;DHT22;30865;51.288;4.572;2022-12-29T11:18:23;14.20;63.20
45104;DHT22;30865;51.288;4.572;2022-12-29T11:20:53;14.10;63.30
45104;DHT22;30865;51.288;4.572;2022-12-29T11:23:25;14.10;62.70
45104;DHT22;30865;51.288;4.572;2022-12-29T11:28:36;14.20;63.10
45104;DHT22;30865;51.288;4.572;2022-12-29T11:31:05;14.10;62.50
45104;DHT22;30865;51.288;4.572;2022-12-29T11:33:32;14.10;62.90
45104;DHT22;30865;51.288;4.572;2022-12-29T11:36:07;14.00;63.20
45104;DHT22;30865;51.288;4.572;2022-12-29T11:38:53;13.90;63.30
45104;DHT22;30865;51.288;4.572;2022-12-29T11:41:28;14.00;63.40
45104;DHT22;30865;51.288;4.572;2022-12-29T11:43:57;14.10;63.20
45104;DHT22;30865;51.288;4.572;2022-12-29T11:46:26;14.00;64.40
45104;DHT22;30865;51.288;4.572;2022-12-29T11:48:53;14.00;65.20
45104;DHT22;30865;51.288;4.572;2022-12-29T11:51:29;13.90;65.70
45104;DHT22;30865;51.288;4.572;2022-12-29T11:53:57;13.80;67.60
45104;DHT22;30865;51.288;4.572;2022-12-29T11:56:44;13.70;68.10
45104;DHT22;30865;51.288;4.572;2022-12-29T11:59:37;13.60;67.60
45104;DHT22;30865;51.288;4.572;2022-12-29T12:05:28;13.70;67.60
45104;DHT22;30865;51.288;4.572;2022-12-29T12:08:10;14.00;66.60
45104;DHT22;30865;51.288;4.572;2022-12-29T12:10:46;13.80;66.80
45104;DHT22;30865;51.288;4.572;2022-12-29T12:16:09;13.70;67.30
45104;DHT22;30865;51.288;4.572;2022-12-29T12:18:45;14.10;66.30
45104;DHT22;30865;51.288;4.572;2022-12-29T12:29:41;13.80;67.10
45104;DHT22;30865;51.288;4.572;2022-12-29T12:32:21;13.70;67.50
45104;DHT22;30865;51.288;4.572;2022-12-29T12:34:49;13.70;67.50
45104;DHT22;30865;51.288;4.572;2022-12-29T12:40:34;13.70;68.20
45104;DHT22;30865;51.288;4.572;2022-12-29T12:43:28;13.80;67.60
45104;DHT22;30865;51.288;4.572;2022-12-29T12:46:18;13.70;68.70
45104;DHT22;30865;51.288;4.572;2022-12-29T12:48:52;13.50;71.10
45104;DHT22;30865;51.288;4.572;2022-12-29T13:00:20;13.20;76.00
45104;DHT22;30865;51.288;4.572;2022-12-29T13:16:41;13.50;75.30
45104;DHT22;30865;51.288;4.572;2022-12-29T13:22:19;13.30;76.10
45104;DHT22;30865;51.288;4.572;2022-12-29T13:25:01;13.40;76.50
45104;DHT22;30865;51.288;4.572;2022-12-29T13:27:47;13.50;75.30
45104;DHT22;30865;51.288;4.572;2022-12-29T13:34:05;13.50;75.30
45104;DHT22;30865;51.288;4.572;2022-12-29T13:36:37;13.50;75.30
45104;DHT22;30865;51.288;4.572;2022-12-29T13:39:18;13.30;75.10
45104;DHT22;30865;51.288;4.572;2022-12-29T13:41:56;13.30;75.60
45104;DHT22;30865;51.288;4.572;2022-12-29T13:45:25;13.30;75.20
45104;DHT22;30865;51.288;4.572;2022-12-29T13:47:38;13.30;74.50
45104;DHT22;30865;51.288;4.572;2022-12-29T13:50:14;13.20;74.10
45104;DHT22;30865;51.288;4.572;2022-12-29T13:52:59;13.20;74.30
45104;DHT22;30865;51.288;4.572;2022-12-29T13:58:26;13.10;75.00
45104;DHT22;30865;51.288;4.572;2022-12-29T14:03:44;13.10;75.50
45104;DHT22;30865;51.288;4.572;2022-12-29T14:06:23;13.10;76.10
45104;DHT22;30865;51.288;4.572;2022-12-29T14:08:55;13.10;76.00
45104;DHT22;30865;51.288;4.572;2022-12-29T14:11:23;13.20;75.70
45104;DHT22;30865;51.288;4.572;2022-12-29T14:13:53;13.20;75.70
45104;DHT22;30865;51.288;4.572;2022-12-29T14:18:51;13.40;74.40
45104;DHT22;30865;51.288;4.572;2022-12-29T14:21:21;13.40;74.80
45104;DHT22;30865;51.288;4.572;2022-12-29T14:23:49;13.30;74.70
45104;DHT22;30865;51.288;4.572;2022-12-29T14:26:37;13.20;75.20
45104;DHT22;30865;51.288;4.572;2022-12-29T14:31:48;13.00;75.90
45104;DHT22;30865;51.288;4.572;2022-12-29T14:34:15;13.00;76.20
45104;DHT22;30865;51.288;4.572;2022-12-29T14:36:52;13.00;76.20
45104;DHT22;30865;51.288;4.572;2022-12-29T14:39:37;12.90;76.80
45104;DHT22;30865;51.288;4.572;2022-12-29T14:47:18;12.80;77.20
45104;DHT22;30865;51.288;4.572;2022-12-29T14:49:45;12.60;78.00
45104;DHT22;30865;51.288;4.572;2022-12-29T14:52:23;12.60;77.80
45104;DHT22;30865;51.288;4.572;2022-12-29T14:57:37;12.60;77.00
45104;DHT22;30865;51.288;4.572;2022-12-29T15:00:22;12.60;77.70
45104;DHT22;30865;51.288;4.572;2022-12-29T15:05:43;12.50;78.50
45104;DHT22;30865;51.288;4.572;2022-12-29T15:08:11;12.30;79.20
45104;DHT22;30865;51.288;4.572;2022-12-29T15:10:42;12.30;79.30
45104;DHT22;30865;51.288;4.572;2022-12-29T15:13:18;12.20;79.50
45104;DHT22;30865;51.288;4.572;2022-12-29T15:15:47;12.20;79.60
45104;DHT22;30865;51.288;4.572;2022-12-29T15:18:15;12.20;79.80
45104;DHT22;30865;51.288;4.572;2022-12-29T15:20:51;12.10;79.80
45104;DHT22;30865;51.288;4.572;2022-12-29T15:23:18;12.00;80.10
45104;DHT22;30865;51.288;4.572;2022-12-29T15:25:53;12.00;80.40
45104;DHT22;30865;51.288;4.572;2022-12-29T15:28:20;11.90;80.50
45104;DHT22;30865;51.288;4.572;2022-12-29T15:31:02;11.90;80.70
45104;DHT22;30865;51.288;4.572;2022-12-29T15:33:28;11.90;80.20
45104;DHT22;30865;51.288;4.572;2022-12-29T15:35:55;11.90;80.90
45104;DHT22;30865;51.288;4.572;2022-12-29T15:38:24;12.00;80.60
45104;DHT22;30865;51.288;4.572;2022-12-29T15:40:56;12.00;80.30
45104;DHT22;30865;51.288;4.572;2022-12-29T15:43:40;12.20;78.60
45104;DHT22;30865;51.288;4.572;2022-12-29T15:46:07;12.20;79.00
45104;DHT22;30865;51.288;4.572;2022-12-29T15:48:35;12.10;79.10
45104;DHT22;30865;51.288;4.572;2022-12-29T15:51:01;12.10;79.60
45104;DHT22;30865;51.288;4.572;2022-12-29T15:53:31;12.10;79.00
45104;DHT22;30865;51.288;4.572;2022-12-29T15:56:06;12.30;77.60
45104;DHT22;30865;51.288;4.572;2022-12-29T15:58:41;12.30;77.40
45104;DHT22;30865;51.288;4.572;2022-12-29T16:01:17;12.30;77.20
45104;DHT22;30865;51.288;4.572;2022-12-29T16:03:43;12.40;76.80
45104;DHT22;30865;51.288;4.572;2022-12-29T16:06:29;12.50;76.20
45104;DHT22;30865;51.288;4.572;2022-12-29T16:09:00;12.60;76.20
45104;DHT22;30865;51.288;4.572;2022-12-29T16:11:38;12.60;76.90
45104;DHT22;30865;51.288;4.572;2022-12-29T16:14:30;12.60;78.20
45104;DHT22;30865;51.288;4.572;2022-12-29T16:16:59;12.40;80.20
45104;DHT22;30865;51.288;4.572;2022-12-29T16:19:35;12.00;82.00
45104;DHT22;30865;51.288;4.572;2022-12-29T16:22:02;11.80;83.50
45104;DHT22;30865;51.288;4.572;2022-12-29T16:24:31;11.70;83.00
45104;DHT22;30865;51.288;4.572;2022-12-29T16:27:13;11.50;83.80
45104;DHT22;30865;51.288;4.572;2022-12-29T16:29:42;11.40;84.90
45104;DHT22;30865;51.288;4.572;2022-12-29T16:32:28;11.20;85.80
45104;DHT22;30865;51.288;4.572;2022-12-29T16:35:22;11.20;85.90
45104;DHT22;30865;51.288;4.572;2022-12-29T16:38:06;11.20;85.70
45104;DHT22;30865;51.288;4.572;2022-12-29T16:40:32;11.30;85.50
45104;DHT22;30865;51.288;4.572;2022-12-29T16:43:00;11.20;85.80
45104;DHT22;30865;51.288;4.572;2022-12-29T16:48:19;11.00;86.00
45104;DHT22;30865;51.288;4.572;2022-12-29T16:50:45;10.90;86.90
45104;DHT22;30865;51.288;4.572;2022-12-29T16:56:03;10.80;88.80
45104;DHT22;30865;51.288;4.572;2022-12-29T16:58:29;10.80;89.50
45104;DHT22;30865;51.288;4.572;2022-12-29T17:00:57;10.70;90.10
45104;DHT22;30865;51.288;4.572;2022-12-29T17:03:37;10.90;88.50
45104;DHT22;30865;51.288;4.572;2022-12-29T17:06:05;10.90;88.00
45104;DHT22;30865;51.288;4.572;2022-12-29T17:08:40;11.00;89.00
45104;DHT22;30865;51.288;4.572;2022-12-29T17:11:22;10.90;89.90
45104;DHT22;30865;51.288;4.572;2022-12-29T17:14:30;10.90;91.40
45104;DHT22;30865;51.288;4.572;2022-12-29T17:16:56;10.80;90.30
45104;DHT22;30865;51.288;4.572;2022-12-29T17:19:31;10.70;91.50
45104;DHT22;30865;51.288;4.572;2022-12-29T17:21:58;10.60;91.20
45104;DHT22;30865;51.288;4.572;2022-12-29T17:24:24;10.50;92.10
45104;DHT22;30865;51.288;4.572;2022-12-29T17:26:52;10.40;92.60
45104;DHT22;30865;51.288;4.572;2022-12-29T17:29:36;10.30;92.70
45104;DHT22;30865;51.288;4.572;2022-12-29T17:32:04;10.20;93.30
45104;DHT22;30865;51.288;4.572;2022-12-29T17:34:31;10.10;93.50
45104;DHT22;30865;51.288;4.572;2022-12-29T17:36:56;10.10;93.60
45104;DHT22;30865;51.288;4.572;2022-12-29T17:39:22;10.10;94.00
45104;DHT22;30865;51.288;4.572;2022-12-29T17:41:51;10.10;94.20
45104;DHT22;30865;51.288;4.572;2022-12-29T17:44:18;10.10;94.60
45104;DHT22;30865;51.288;4.572;2022-12-29T17:46:48;10.10;94.80
45104;DHT22;30865;51.288;4.572;2022-12-29T17:49:16;10.10;94.70
45104;DHT22;30865;51.288;4.572;2022-12-29T17:51:42;10.10;94.80
45104;DHT22;30865;51.288;4.572;2022-12-29T17:54:22;10.10;95.10
45104;DHT22;30865;51.288;4.572;2022-12-29T17:56:48;10.10;95.20
45104;DHT22;30865;51.288;4.572;2022-12-29T17:59:14;10.10;95.10
45104;DHT22;30865;51.288;4.572;2022-12-29T18:01:41;10.00;95.00
45104;DHT22;30865;51.288;4.572;2022-12-29T18:04:11;10.00;95.20
45104;DHT22;30865;51.288;4.572;2022-12-29T18:06:38;10.00;95.20
45104;DHT22;30865;51.288;4.572;2022-12-29T18:09:07;10.00;95.30
45104;DHT22;30865;51.288;4.572;2022-12-29T18:11:37;9.90;95.70